sensor_id;sensor_type;location;lat;lon;timestamp;pressure;altitude;pressure_sealevel;temperature;humidity
6204;BME280;3135;42.602;23.468;2022-07-29T00:00:37;93237.91;;;19.14;100.00
6204;BME280;3135;42.602;23.468;2022-07-29T00:03:02;93245.72;;;19.15;100.00
6204;BME280;3135;42.602;23.468;2022-07-29T00:05:28;93218.91;;;19.02;100.00
6204;BME280;3135;42.602;23.468;2022-07-29T00:07:54;93236.34;;;19.13;100.00
6204;BME280;3135;42.602;23.468;2022-07-29T00:10:19;93248.88;;;19.18;100.00
6204;BME280;3135;42.602;23.468;2022-07-29T00:12:45;93257.50;;;19.20;100.00
6204;BME280;3135;42.602;23.468;2022-07-29T00:15:10;93222.53;;;18.85;100.00
6204;BME280;3135;42.602;23.468;2022-07-29T00:17:36;93239.13;;;18.83;100.00
6204;BME280;3135;42.602;23.468;2022-07-29T00:20:02;93261.31;;;18.98;100.00
6204;BME280;3135;42.602;23.468;2022-07-29T00:22:27;93246.56;;;18.86;100.00
6204;BME280;3135;42.602;23.468;2022-07-29T00:24:52;93240.69;;;18.84;100.00
6204;BME280;3135;42.602;23.468;2022-07-29T00:27:18;93264.03;;;18.98;100.00
6204;BME280;3135;42.602;23.468;2022-07-29T00:29:44;93267.31;;;18.82;100.00
6204;BME280;3135;42.602;23.468;2022-07-29T00:32:10;93259.09;;;18.70;100.00
6204;BME280;3135;42.602;23.468;2022-07-29T00:34:35;93256.34;;;18.79;100.00
6204;BME280;3135;42.602;23.468;2022-07-29T00:37:19;93256.22;;;18.67;100.00
6204;BME280;3135;42.602;23.468;2022-07-29T00:39:44;93251.31;;;18.69;100.00
6204;BME280;3135;42.602;23.468;2022-07-29T00:42:10;93244.44;;;18.71;100.00
6204;BME280;3135;42.602;23.468;2022-07-29T00:44:40;93250.34;;;18.73;100.00
6204;BME280;3135;42.602;23.468;2022-07-29T00:47:06;93246.66;;;18.78;100.00
6204;BME280;3135;42.602;23.468;2022-07-29T00:49:33;93238.84;;;18.68;100.00
6204;BME280;3135;42.602;23.468;2022-07-29T00:52:04;93235.59;;;18.53;100.00
6204;BME280;3135;42.602;23.468;2022-07-29T00:54:30;93243.47;;;18.67;100.00
6204;BME280;3135;42.602;23.468;2022-07-29T00:56:58;93245.75;;;18.65;100.00
6204;BME280;3135;42.602;23.468;2022-07-29T00:59:24;93237.63;;;18.65;100.00
6204;BME280;3135;42.602;23.468;2022-07-29T01:01:50;93249.56;;;18.73;100.00
6204;BME280;3135;42.602;23.468;2022-07-29T01:04:16;93244.59;;;18.66;100.00
6204;BME280;3135;42.602;23.468;2022-07-29T01:06:42;93237.66;;;18.56;100.00
6204;BME280;3135;42.602;23.468;2022-07-29T01:09:09;93248.44;;;18.65;100.00
6204;BME280;3135;42.602;23.468;2022-07-29T01:11:35;93222.25;;;18.48;100.00
6204;BME280;3135;42.602;23.468;2022-07-29T01:14:01;93228.16;;;18.50;100.00
6204;BME280;3135;42.602;23.468;2022-07-29T01:16:31;93243.56;;;18.58;100.00
6204;BME280;3135;42.602;23.468;2022-07-29T01:19:06;93233.28;;;18.43;100.00
6204;BME280;3135;42.602;23.468;2022-07-29T01:21:54;93226.69;;;18.53;100.00
6204;BME280;3135;42.602;23.468;2022-07-29T01:25:00;93244.16;;;18.64;100.00
6204;BME280;3135;42.602;23.468;2022-07-29T01:30:12;93225.19;;;18.34;100.00
6204;BME280;3135;42.602;23.468;2022-07-29T01:32:39;93237.06;;;18.51;100.00
6204;BME280;3135;42.602;23.468;2022-07-29T01:35:31;93241.75;;;18.62;100.00
6204;BME280;3135;42.602;23.468;2022-07-29T01:38:12;93245.75;;;18.65;100.00
6204;BME280;3135;42.602;23.468;2022-07-29T01:40:44;93228.69;;;18.73;100.00
6204;BME280;3135;42.602;23.468;2022-07-29T01:43:14;93240.84;;;18.88;100.00
6204;BME280;3135;42.602;23.468;2022-07-29T01:46:01;93220.81;;;18.80;100.00
6204;BME280;3135;42.602;23.468;2022-07-29T01:48:38;93212.50;;;18.85;100.00
6204;BME280;3135;42.602;23.468;2022-07-29T01:51:32;93225.88;;;18.82;100.00
6204;BME280;3135;42.602;23.468;2022-07-29T01:54:10;93217.91;;;18.85;100.00
6204;BME280;3135;42.602;23.468;2022-07-29T01:56:37;93218.44;;;18.79;100.00
6204;BME280;3135;42.602;23.468;2022-07-29T01:59:06;93216.34;;;18.55;100.00
6204;BME280;3135;42.602;23.468;2022-07-29T02:01:33;93217.13;;;18.55;100.00
6204;BME280;3135;42.602;23.468;2022-07-29T02:04:03;93224.09;;;18.35;100.00
6204;BME280;3135;42.602;23.468;2022-07-29T02:06:30;93207.16;;;18.47;100.00
6204;BME280;3135;42.602;23.468;2022-07-29T02:08:58;93211.00;;;18.67;100.00
6204;BME280;3135;42.602;23.468;2022-07-29T02:11:24;93207.69;;;18.61;100.00
6204;BME280;3135;42.602;23.468;2022-07-29T02:13:52;93196.66;;;18.46;100.00
6204;BME280;3135;42.602;23.468;2022-07-29T02:16:22;93196.28;;;18.56;100.00
6204;BME280;3135;42.602;23.468;2022-07-29T02:18:52;93197.22;;;18.60;100.00
6204;BME280;3135;42.602;23.468;2022-07-29T02:21:22;93195.16;;;18.57;100.00
6204;BME280;3135;42.602;23.468;2022-07-29T02:23:49;93205.78;;;18.62;100.00
6204;BME280;3135;42.602;23.468;2022-07-29T02:26:18;93191.25;;;18.46;100.00
6204;BME280;3135;42.602;23.468;2022-07-29T02:28:46;93204.44;;;18.47;100.00
6204;BME280;3135;42.602;23.468;2022-07-29T02:31:12;93211.13;;;18.50;100.00
6204;BME280;3135;42.602;23.468;2022-07-29T02:33:39;93212.91;;;18.67;100.00
6204;BME280;3135;42.602;23.468;2022-07-29T02:36:06;93195.25;;;18.69;100.00
6204;BME280;3135;42.602;23.468;2022-07-29T02:38:32;93197.28;;;18.72;100.00
6204;BME280;3135;42.602;23.468;2022-07-29T02:41:28;93203.00;;;18.79;100.00
6204;BME280;3135;42.602;23.468;2022-07-29T02:43:57;93206.88;;;18.90;100.00
6204;BME280;3135;42.602;23.468;2022-07-29T02:46:31;93220.22;;;18.96;100.00
6204;BME280;3135;42.602;23.468;2022-07-29T02:49:06;93210.00;;;19.01;100.00
6204;BME280;3135;42.602;23.468;2022-07-29T02:51:41;93210.72;;;19.10;100.00
6204;BME280;3135;42.602;23.468;2022-07-29T02:54:10;93210.16;;;19.17;100.00
6204;BME280;3135;42.602;23.468;2022-07-29T02:56:38;93212.16;;;19.08;100.00
6204;BME280;3135;42.602;23.468;2022-07-29T02:59:08;93190.88;;;18.77;100.00
6204;BME280;3135;42.602;23.468;2022-07-29T03:01:39;93197.56;;;18.79;100.00
6204;BME280;3135;42.602;23.468;2022-07-29T03:04:05;93187.41;;;18.68;100.00
6204;BME280;3135;42.602;23.468;2022-07-29T03:06:33;93200.66;;;18.90;100.00
6204;BME280;3135;42.602;23.468;2022-07-29T03:09:00;93205.03;;;18.82;100.00
6204;BME280;3135;42.602;23.468;2022-07-29T03:11:26;93192.81;;;18.76;100.00
6204;BME280;3135;42.602;23.468;2022-07-29T03:13:52;93204.22;;;18.82;100.00
6204;BME280;3135;42.602;23.468;2022-07-29T03:16:19;93194.88;;;18.79;100.00
6204;BME280;3135;42.602;23.468;2022-07-29T03:18:45;93196.72;;;18.87;100.00
6204;BME280;3135;42.602;23.468;2022-07-29T03:21:11;93188.59;;;18.87;100.00
6204;BME280;3135;42.602;23.468;2022-07-29T03:23:37;93170.09;;;18.69;100.00
6204;BME280;3135;42.602;23.468;2022-07-29T03:26:08;93213.75;;;18.88;100.00
6204;BME280;3135;42.602;23.468;2022-07-29T03:28:33;93201.03;;;18.59;100.00
6204;BME280;3135;42.602;23.468;2022-07-29T03:30:59;93198.75;;;18.70;100.00
6204;BME280;3135;42.602;23.468;2022-07-29T03:33:24;93187.97;;;18.61;100.00
6204;BME280;3135;42.602;23.468;2022-07-29T03:35:50;93190.22;;;18.59;100.00
6204;BME280;3135;42.602;23.468;2022-07-29T03:38:15;93203.84;;;18.62;100.00
6204;BME280;3135;42.602;23.468;2022-07-29T03:40:45;93210.53;;;18.65;100.00
6204;BME280;3135;42.602;23.468;2022-07-29T03:43:15;93195.09;;;18.65;100.00
6204;BME280;3135;42.602;23.468;2022-07-29T03:45:44;93189.44;;;18.58;100.00
6204;BME280;3135;42.602;23.468;2022-07-29T03:48:14;93194.16;;;18.61;100.00
6204;BME280;3135;42.602;23.468;2022-07-29T03:50:40;93212.50;;;18.85;100.00
6204;BME280;3135;42.602;23.468;2022-07-29T03:53:06;93216.41;;;18.97;100.00
6204;BME280;3135;42.602;23.468;2022-07-29T03:55:37;93208.13;;;18.93;100.00
6204;BME280;3135;42.602;23.468;2022-07-29T03:58:04;93206.22;;;18.94;100.00
6204;BME280;3135;42.602;23.468;2022-07-29T04:00:31;93208.59;;;18.95;100.00
6204;BME280;3135;42.602;23.468;2022-07-29T04:02:58;93193.09;;;18.83;100.00
6204;BME280;3135;42.602;23.468;2022-07-29T04:05:24;93213.50;;;19.02;100.00
6204;BME280;3135;42.602;23.468;2022-07-29T04:07:49;93201.53;;;19.03;100.00
6204;BME280;3135;42.602;23.468;2022-07-29T04:10:16;93220.88;;;19.13;100.00
6204;BME280;3135;42.602;23.468;2022-07-29T04:12:42;93218.50;;;19.12;100.00
6204;BME280;3135;42.602;23.468;2022-07-29T04:15:08;93219.22;;;19.21;100.00
6204;BME280;3135;42.602;23.468;2022-07-29T04:17:34;93217.16;;;19.18;100.00
6204;BME280;3135;42.602;23.468;2022-07-29T04:19:59;93222.59;;;19.18;100.00
6204;BME280;3135;42.602;23.468;2022-07-29T04:22:24;93212.16;;;19.08;100.00
6204;BME280;3135;42.602;23.468;2022-07-29T04:24:50;93198.44;;;18.92;100.00
6204;BME280;3135;42.602;23.468;2022-07-29T04:27:16;93214.41;;;19.06;100.00
6204;BME280;3135;42.602;23.468;2022-07-29T04:29:41;93211.16;;;19.12;100.00
6204;BME280;3135;42.602;23.468;2022-07-29T04:32:07;93205.75;;;19.12;100.00
6204;BME280;3135;42.602;23.468;2022-07-29T04:34:32;93197.47;;;19.09;100.00
6204;BME280;3135;42.602;23.468;2022-07-29T04:36:57;93212.16;;;19.08;100.00
6204;BME280;3135;42.602;23.468;2022-07-29T04:39:23;93219.66;;;19.23;100.00
6204;BME280;3135;42.602;23.468;2022-07-29T04:41:49;93203.31;;;19.20;100.00
6204;BME280;3135;42.602;23.468;2022-07-29T04:44:15;93206.31;;;19.39;100.00
6204;BME280;3135;42.602;23.468;2022-07-29T04:46:40;93210.34;;;19.33;100.00
6204;BME280;3135;42.602;23.468;2022-07-29T04:49:06;93215.03;;;19.45;100.00
6204;BME280;3135;42.602;23.468;2022-07-29T04:51:31;93218.09;;;19.55;100.00
6204;BME280;3135;42.602;23.468;2022-07-29T04:53:57;93209.72;;;19.48;100.00
6204;BME280;3135;42.602;23.468;2022-07-29T04:56:22;93236.16;;;19.72;100.00
6204;BME280;3135;42.602;23.468;2022-07-29T04:58:48;93209.94;;;19.76;100.00
6204;BME280;3135;42.602;23.468;2022-07-29T05:01:14;93220.78;;;19.76;100.00
6204;BME280;3135;42.602;23.468;2022-07-29T05:03:39;93233.81;;;19.95;100.00
6204;BME280;3135;42.602;23.468;2022-07-29T05:06:05;93231.44;;;19.94;100.00
6204;BME280;3135;42.602;23.468;2022-07-29T05:08:30;93223.50;;;19.88;100.00
6204;BME280;3135;42.602;23.468;2022-07-29T05:10:56;93212.91;;;19.96;100.00
6204;BME280;3135;42.602;23.468;2022-07-29T05:13:21;93233.28;;;20.26;100.00
6204;BME280;3135;42.602;23.468;2022-07-29T05:15:47;93224.44;;;20.41;100.00
6204;BME280;3135;42.602;23.468;2022-07-29T05:18:12;93239.19;;;20.53;100.00
6204;BME280;3135;42.602;23.468;2022-07-29T05:20:38;93239.19;;;20.53;100.00
6204;BME280;3135;42.602;23.468;2022-07-29T05:23:03;93230.47;;;20.59;100.00
6204;BME280;3135;42.602;23.468;2022-07-29T05:25:29;93221.09;;;20.57;100.00
6204;BME280;3135;42.602;23.468;2022-07-29T05:27:55;93252.88;;;20.81;100.00
6204;BME280;3135;42.602;23.468;2022-07-29T05:30:21;93240.97;;;20.73;100.00
6204;BME280;3135;42.602;23.468;2022-07-29T05:32:47;93246.28;;;20.94;100.00
6204;BME280;3135;42.602;23.468;2022-07-29T05:35:13;93246.13;;;21.03;100.00
6204;BME280;3135;42.602;23.468;2022-07-29T05:37:38;93254.50;;;21.10;100.00
6204;BME280;3135;42.602;23.468;2022-07-29T05:40:04;93245.31;;;21.14;100.00
6204;BME280;3135;42.602;23.468;2022-07-29T05:42:30;93245.91;;;21.08;100.00
6204;BME280;3135;42.602;23.468;2022-07-29T05:44:56;93253.59;;;21.06;100.00
6204;BME280;3135;42.602;23.468;2022-07-29T05:47:22;93248.09;;;21.30;100.00
6204;BME280;3135;42.602;23.468;2022-07-29T05:49:47;93257.88;;;21.19;100.00
6204;BME280;3135;42.602;23.468;2022-07-29T05:52:12;93247.19;;;21.26;100.00
6204;BME280;3135;42.602;23.468;2022-07-29T05:54:38;93264.66;;;21.37;100.00
6204;BME280;3135;42.602;23.468;2022-07-29T05:57:05;93257.25;;;21.50;100.00
6204;BME280;3135;42.602;23.468;2022-07-29T05:59:31;93249.31;;;21.73;100.00
6204;BME280;3135;42.602;23.468;2022-07-29T06:01:57;93242.28;;;21.72;100.00
6204;BME280;3135;42.602;23.468;2022-07-29T06:04:22;93264.13;;;22.04;100.00
6204;BME280;3135;42.602;23.468;2022-07-29T06:06:48;93259.88;;;22.18;100.00
6204;BME280;3135;42.602;23.468;2022-07-29T06:09:13;93260.41;;;22.40;100.00
6204;BME280;3135;42.602;23.468;2022-07-29T06:11:39;93248.56;;;22.16;100.00
6204;BME280;3135;42.602;23.468;2022-07-29T06:14:04;93261.53;;;22.39;100.00
6204;BME280;3135;42.602;23.468;2022-07-29T06:16:30;93262.25;;;22.52;100.00
6204;BME280;3135;42.602;23.468;2022-07-29T06:18:55;93265.47;;;22.57;100.00
6204;BME280;3135;42.602;23.468;2022-07-29T06:21:21;93268.91;;;22.38;100.00
6204;BME280;3135;42.602;23.468;2022-07-29T06:23:46;93261.81;;;22.50;100.00
6204;BME280;3135;42.602;23.468;2022-07-29T06:26:12;93261.34;;;22.79;100.00
6204;BME280;3135;42.602;23.468;2022-07-29T06:28:37;93269.88;;;22.93;100.00
6204;BME280;3135;42.602;23.468;2022-07-29T06:31:03;93278.13;;;22.97;100.00
6204;BME280;3135;42.602;23.468;2022-07-29T06:33:28;93258.31;;;23.16;100.00
6204;BME280;3135;42.602;23.468;2022-07-29T06:35:54;93280.56;;;23.37;100.00
6204;BME280;3135;42.602;23.468;2022-07-29T06:38:20;93274.53;;;23.47;100.00
6204;BME280;3135;42.602;23.468;2022-07-29T06:40:46;93246.41;;;23.43;100.00
6204;BME280;3135;42.602;23.468;2022-07-29T06:43:40;93272.47;;;23.60;100.00
6204;BME280;3135;42.602;23.468;2022-07-29T06:46:14;93277.13;;;23.60;100.00
6204;BME280;3135;42.602;23.468;2022-07-29T06:48:41;93281.03;;;23.97;100.00
6204;BME280;3135;42.602;23.468;2022-07-29T06:51:10;93271.66;;;23.98;100.00
6204;BME280;3135;42.602;23.468;2022-07-29T06:53:37;93277.44;;;23.93;100.00
6204;BME280;3135;42.602;23.468;2022-07-29T06:56:04;93257.72;;;24.04;100.00
6204;BME280;3135;42.602;23.468;2022-07-29T06:58:30;93234.38;;;24.06;100.00
6204;BME280;3135;42.602;23.468;2022-07-29T07:00:56;93278.84;;;24.07;100.00
6204;BME280;3135;42.602;23.468;2022-07-29T07:03:22;93266.69;;;23.81;100.00
6204;BME280;3135;42.602;23.468;2022-07-29T07:05:48;93268.75;;;23.88;100.00
6204;BME280;3135;42.602;23.468;2022-07-29T07:08:14;93255.25;;;23.95;100.00
6204;BME280;3135;42.602;23.468;2022-07-29T07:10:41;93269.25;;;23.93;100.00
6204;BME280;3135;42.602;23.468;2022-07-29T07:13:07;93271.00;;;23.82;99.64
6204;BME280;3135;42.602;23.468;2022-07-29T07:15:32;93271.06;;;24.09;97.43
6204;BME280;3135;42.602;23.468;2022-07-29T07:17:58;93263.06;;;23.96;98.33
6204;BME280;3135;42.602;23.468;2022-07-29T07:20:24;93272.25;;;23.88;100.00
6204;BME280;3135;42.602;23.468;2022-07-29T07:22:50;93273.50;;;24.33;98.29
6204;BME280;3135;42.602;23.468;2022-07-29T07:25:15;93283.41;;;24.64;97.24
6204;BME280;3135;42.602;23.468;2022-07-29T07:27:44;93262.66;;;24.86;98.00
6204;BME280;3135;42.602;23.468;2022-07-29T07:30:10;93280.25;;;25.12;94.28
6204;BME280;3135;42.602;23.468;2022-07-29T07:32:36;93237.25;;;25.39;95.30
6204;BME280;3135;42.602;23.468;2022-07-29T07:35:03;93246.88;;;25.59;89.48
6204;BME280;3135;42.602;23.468;2022-07-29T07:37:28;93264.63;;;26.03;88.07
6204;BME280;3135;42.602;23.468;2022-07-29T07:39:54;93269.00;;;26.44;88.18
6204;BME280;3135;42.602;23.468;2022-07-29T07:42:20;93256.03;;;26.89;89.51
6204;BME280;3135;42.602;23.468;2022-07-29T07:44:45;93246.09;;;27.15;86.26
6204;BME280;3135;42.602;23.468;2022-07-29T07:47:11;93255.63;;;27.42;88.25
6204;BME280;3135;42.602;23.468;2022-07-29T07:49:37;93254.19;;;27.70;86.45
6204;BME280;3135;42.602;23.468;2022-07-29T07:52:03;93256.94;;;27.70;80.22
6204;BME280;3135;42.602;23.468;2022-07-29T07:54:28;93234.19;;;27.69;76.02
6204;BME280;3135;42.602;23.468;2022-07-29T07:56:54;93267.75;;;28.21;77.20
6204;BME280;3135;42.602;23.468;2022-07-29T07:59:19;93246.44;;;27.83;73.50
6204;BME280;3135;42.602;23.468;2022-07-29T08:01:45;93246.13;;;27.25;78.87
6204;BME280;3135;42.602;23.468;2022-07-29T08:04:10;93257.44;;;27.86;78.18
6204;BME280;3135;42.602;23.468;2022-07-29T08:06:36;93251.31;;;27.41;75.11
6204;BME280;3135;42.602;23.468;2022-07-29T08:09:04;93232.78;;;27.24;74.83
6204;BME280;3135;42.602;23.468;2022-07-29T08:11:31;93272.25;;;27.67;77.41
6204;BME280;3135;42.602;23.468;2022-07-29T08:13:56;93252.28;;;27.74;73.04
6204;BME280;3135;42.602;23.468;2022-07-29T08:16:22;93271.56;;;27.88;73.36
6204;BME280;3135;42.602;23.468;2022-07-29T08:18:50;93269.94;;;27.80;74.53
6204;BME280;3135;42.602;23.468;2022-07-29T08:21:16;93270.41;;;27.96;69.95
6204;BME280;3135;42.602;23.468;2022-07-29T08:23:43;93271.59;;;27.99;71.17
6204;BME280;3135;42.602;23.468;2022-07-29T08:26:15;93252.34;;;27.99;72.53
6204;BME280;3135;42.602;23.468;2022-07-29T08:28:43;93263.53;;;27.55;71.40
6204;BME280;3135;42.602;23.468;2022-07-29T08:31:15;93266.50;;;28.01;71.96
6204;BME280;3135;42.602;23.468;2022-07-29T08:33:41;93262.63;;;28.16;71.98
6204;BME280;3135;42.602;23.468;2022-07-29T08:36:06;93266.16;;;28.27;69.11
6204;BME280;3135;42.602;23.468;2022-07-29T08:38:32;93259.50;;;28.25;71.67
6204;BME280;3135;42.602;23.468;2022-07-29T08:41:00;93269.38;;;28.40;70.11
6204;BME280;3135;42.602;23.468;2022-07-29T08:43:29;93247.38;;;28.40;71.82
6204;BME280;3135;42.602;23.468;2022-07-29T08:45:55;93253.31;;;28.57;71.40
6204;BME280;3135;42.602;23.468;2022-07-29T08:48:23;93258.03;;;28.63;73.01
6204;BME280;3135;42.602;23.468;2022-07-29T08:50:52;93263.16;;;28.97;69.72
6204;BME280;3135;42.602;23.468;2022-07-29T08:53:21;93257.63;;;29.36;69.90
6204;BME280;3135;42.602;23.468;2022-07-29T08:55:47;93259.19;;;29.55;69.87
6204;BME280;3135;42.602;23.468;2022-07-29T08:58:14;93255.03;;;30.06;69.28
6204;BME280;3135;42.602;23.468;2022-07-29T09:00:45;93257.88;;;29.88;66.48
6204;BME280;3135;42.602;23.468;2022-07-29T09:03:15;93259.31;;;30.21;66.74
6204;BME280;3135;42.602;23.468;2022-07-29T09:05:42;93239.28;;;30.07;67.04
6204;BME280;3135;42.602;23.468;2022-07-29T09:08:10;93261.47;;;29.64;65.95
6204;BME280;3135;42.602;23.468;2022-07-29T09:10:36;93253.81;;;30.18;67.48
6204;BME280;3135;42.602;23.468;2022-07-29T09:13:01;93249.13;;;30.04;69.30
6204;BME280;3135;42.602;23.468;2022-07-29T09:15:27;93247.50;;;30.21;67.82
6204;BME280;3135;42.602;23.468;2022-07-29T09:17:53;93244.63;;;30.39;68.50
6204;BME280;3135;42.602;23.468;2022-07-29T09:20:21;93236.56;;;30.73;68.46
6204;BME280;3135;42.602;23.468;2022-07-29T09:22:47;93235.22;;;30.92;67.06
6204;BME280;3135;42.602;23.468;2022-07-29T09:25:31;93253.91;;;31.18;67.98
6204;BME280;3135;42.602;23.468;2022-07-29T09:28:08;93265.75;;;31.60;65.26
6204;BME280;3135;42.602;23.468;2022-07-29T09:30:33;93257.41;;;31.67;65.85
6204;BME280;3135;42.602;23.468;2022-07-29T09:33:02;93270.44;;;31.67;64.78
6204;BME280;3135;42.602;23.468;2022-07-29T09:35:29;93254.97;;;32.07;62.74
6204;BME280;3135;42.602;23.468;2022-07-29T09:37:55;93257.00;;;32.34;63.01
6204;BME280;3135;42.602;23.468;2022-07-29T09:40:23;93262.03;;;32.12;62.63
6204;BME280;3135;42.602;23.468;2022-07-29T09:42:49;93240.25;;;31.83;62.09
6204;BME280;3135;42.602;23.468;2022-07-29T09:45:34;93250.88;;;32.19;60.46
6204;BME280;3135;42.602;23.468;2022-07-29T09:48:13;93256.56;;;32.66;60.22
6204;BME280;3135;42.602;23.468;2022-07-29T09:50:40;93244.97;;;32.17;60.39
6204;BME280;3135;42.602;23.468;2022-07-29T09:53:06;93245.94;;;32.34;61.69
6204;BME280;3135;42.602;23.468;2022-07-29T09:55:46;93239.63;;;32.33;61.38
6204;BME280;3135;42.602;23.468;2022-07-29T09:58:20;93242.91;;;32.78;58.98
6204;BME280;3135;42.602;23.468;2022-07-29T10:00:46;93233.28;;;32.90;59.94
6204;BME280;3135;42.602;23.468;2022-07-29T10:03:13;93242.66;;;32.96;58.75
6204;BME280;3135;42.602;23.468;2022-07-29T10:05:39;93226.41;;;33.22;57.79
6204;BME280;3135;42.602;23.468;2022-07-29T10:08:06;93226.78;;;33.47;56.97
6204;BME280;3135;42.602;23.468;2022-07-29T10:10:37;93217.25;;;33.68;57.88
6204;BME280;3135;42.602;23.468;2022-07-29T10:13:04;93231.09;;;33.01;56.98
6204;BME280;3135;42.602;23.468;2022-07-29T10:15:32;93227.50;;;33.04;57.09
6204;BME280;3135;42.602;23.468;2022-07-29T10:17:59;93222.81;;;32.74;56.28
6204;BME280;3135;42.602;23.468;2022-07-29T10:20:26;93209.22;;;31.34;56.97
6204;BME280;3135;42.602;23.468;2022-07-29T10:22:52;93203.91;;;31.50;56.21
6204;BME280;3135;42.602;23.468;2022-07-29T10:25:18;93213.50;;;31.39;60.03
6204;BME280;3135;42.602;23.468;2022-07-29T10:27:45;93213.72;;;32.20;56.49
6204;BME280;3135;42.602;23.468;2022-07-29T10:30:12;93203.59;;;32.64;55.43
6204;BME280;3135;42.602;23.468;2022-07-29T10:33:11;93211.59;;;32.85;56.61
6204;BME280;3135;42.602;23.468;2022-07-29T10:41:52;93212.66;;;33.38;55.37
6204;BME280;3135;42.602;23.468;2022-07-29T10:44:22;93193.31;;;33.15;55.15
6204;BME280;3135;42.602;23.468;2022-07-29T10:46:49;93207.00;;;33.22;55.16
6204;BME280;3135;42.602;23.468;2022-07-29T10:49:16;93207.00;;;33.45;53.13
6204;BME280;3135;42.602;23.468;2022-07-29T10:52:05;93197.78;;;33.09;53.47
6204;BME280;3135;42.602;23.468;2022-07-29T10:57:30;93184.00;;;33.48;52.97
6204;BME280;3135;42.602;23.468;2022-07-29T11:05:18;93160.66;;;34.05;51.47
6204;BME280;3135;42.602;23.468;2022-07-29T11:08:17;93190.97;;;33.96;48.88
6204;BME280;3135;42.602;23.468;2022-07-29T11:10:44;93180.72;;;33.73;50.03
6204;BME280;3135;42.602;23.468;2022-07-29T11:13:09;93180.66;;;33.97;50.13
6204;BME280;3135;42.602;23.468;2022-07-29T11:15:54;93191.06;;;34.29;49.66
6204;BME280;3135;42.602;23.468;2022-07-29T11:18:20;93176.84;;;34.27;48.63
6204;BME280;3135;42.602;23.468;2022-07-29T11:20:48;93182.41;;;34.27;48.69
6204;BME280;3135;42.602;23.468;2022-07-29T11:33:55;93158.16;;;34.80;46.02
6204;BME280;3135;42.602;23.468;2022-07-29T11:36:21;93161.81;;;34.93;47.61
6204;BME280;3135;42.602;23.468;2022-07-29T11:38:46;93170.13;;;34.77;46.04
6204;BME280;3135;42.602;23.468;2022-07-29T11:41:22;93173.13;;;34.33;47.13
6204;BME280;3135;42.602;23.468;2022-07-29T11:43:58;93154.69;;;34.92;46.98
6204;BME280;3135;42.602;23.468;2022-07-29T11:46:49;93171.88;;;35.20;46.51
6204;BME280;3135;42.602;23.468;2022-07-29T11:49:24;93146.34;;;35.08;47.29
6204;BME280;3135;42.602;23.468;2022-07-29T11:51:57;93163.75;;;34.64;47.22
6204;BME280;3135;42.602;23.468;2022-07-29T11:54:31;93158.44;;;34.69;46.06
6204;BME280;3135;42.602;23.468;2022-07-29T11:56:57;93176.66;;;34.70;45.98
6204;BME280;3135;42.602;23.468;2022-07-29T11:59:24;93158.28;;;34.24;46.22
6204;BME280;3135;42.602;23.468;2022-07-29T12:01:57;93147.97;;;34.24;46.95
6204;BME280;3135;42.602;23.468;2022-07-29T12:04:23;93151.44;;;34.28;47.69
6204;BME280;3135;42.602;23.468;2022-07-29T12:06:51;93142.31;;;33.92;44.84
6204;BME280;3135;42.602;23.468;2022-07-29T12:09:18;93161.50;;;34.22;45.31
6204;BME280;3135;42.602;23.468;2022-07-29T12:11:44;93156.19;;;34.12;45.38
6204;BME280;3135;42.602;23.468;2022-07-29T12:14:32;93149.50;;;34.09;47.52
6204;BME280;3135;42.602;23.468;2022-07-29T12:16:59;93154.34;;;34.57;45.03
6204;BME280;3135;42.602;23.468;2022-07-29T12:19:26;93148.78;;;34.41;45.16
6204;BME280;3135;42.602;23.468;2022-07-29T12:21:53;93158.34;;;34.20;46.82
6204;BME280;3135;42.602;23.468;2022-07-29T12:24:20;93139.69;;;34.04;46.55
6204;BME280;3135;42.602;23.468;2022-07-29T12:29:18;93144.63;;;33.77;47.25
6204;BME280;3135;42.602;23.468;2022-07-29T12:31:45;93161.41;;;33.70;45.74
6204;BME280;3135;42.602;23.468;2022-07-29T12:34:15;93150.28;;;34.10;45.70
6204;BME280;3135;42.602;23.468;2022-07-29T12:36:42;93144.47;;;33.84;45.65
6204;BME280;3135;42.602;23.468;2022-07-29T12:39:08;93142.03;;;33.26;47.68
6204;BME280;3135;42.602;23.468;2022-07-29T12:41:34;93128.34;;;33.59;47.04
6204;BME280;3135;42.602;23.468;2022-07-29T12:44:00;93152.44;;;33.82;46.34
6204;BME280;3135;42.602;23.468;2022-07-29T12:46:26;93144.97;;;33.79;45.29
6204;BME280;3135;42.602;23.468;2022-07-29T12:48:53;93149.94;;;34.07;46.43
6204;BME280;3135;42.602;23.468;2022-07-29T12:51:39;93145.09;;;34.12;44.47
6204;BME280;3135;42.602;23.468;2022-07-29T12:54:10;93153.00;;;33.93;45.75
6204;BME280;3135;42.602;23.468;2022-07-29T12:56:40;93146.47;;;34.03;46.29
6204;BME280;3135;42.602;23.468;2022-07-29T12:59:13;93144.06;;;34.22;44.99
6204;BME280;3135;42.602;23.468;2022-07-29T13:01:38;93135.44;;;34.52;44.29
6204;BME280;3135;42.602;23.468;2022-07-29T13:04:04;93133.88;;;35.00;45.05
6204;BME280;3135;42.602;23.468;2022-07-29T13:06:42;93145.03;;;35.29;43.30
6204;BME280;3135;42.602;23.468;2022-07-29T13:09:12;93143.28;;;35.19;43.97
6204;BME280;3135;42.602;23.468;2022-07-29T13:11:43;93135.44;;;35.01;43.52
6204;BME280;3135;42.602;23.468;2022-07-29T13:14:31;93121.91;;;34.87;43.82
6204;BME280;3135;42.602;23.468;2022-07-29T13:17:06;93123.63;;;34.81;43.42
6204;BME280;3135;42.602;23.468;2022-07-29T13:19:52;93127.91;;;34.69;45.71
6204;BME280;3135;42.602;23.468;2022-07-29T13:22:21;93136.03;;;34.76;43.58
6204;BME280;3135;42.602;23.468;2022-07-29T13:27:17;93118.66;;;34.07;44.77
6204;BME280;3135;42.602;23.468;2022-07-29T13:29:43;93070.53;;;34.14;45.07
6204;BME280;3135;42.602;23.468;2022-07-29T13:32:08;93105.75;;;34.17;45.33
6204;BME280;3135;42.602;23.468;2022-07-29T13:34:34;93096.84;;;34.25;46.17
6204;BME280;3135;42.602;23.468;2022-07-29T13:36:59;93078.88;;;34.14;45.48
6204;BME280;3135;42.602;23.468;2022-07-29T13:39:25;93095.94;;;34.28;46.04
6204;BME280;3135;42.602;23.468;2022-07-29T13:41:51;93080.50;;;34.11;44.58
6204;BME280;3135;42.602;23.468;2022-07-29T13:44:16;93098.22;;;34.17;45.46